sensor_id;sensor_type;location;lat;lon;timestamp;temperature;humidity
21238;DHT22;10777;50.828;3.264;2022-10-22T00:01:40;16.70;99.90
21238;DHT22;10777;50.828;3.264;2022-10-22T00:04:06;16.70;99.90
21238;DHT22;10777;50.828;3.264;2022-10-22T00:06:32;16.70;99.90
21238;DHT22;10777;50.828;3.264;2022-10-22T00:08:58;16.80;99.90
21238;DHT22;10777;50.828;3.264;2022-10-22T00:11:24;16.80;99.90
21238;DHT22;10777;50.828;3.264;2022-10-22T00:13:50;16.70;99.90
21238;DHT22;10777;50.828;3.264;2022-10-22T00:16:16;16.80;99.90
21238;DHT22;10777;50.828;3.264;2022-10-22T00:18:41;16.80;99.90
21238;DHT22;10777;50.828;3.264;2022-10-22T00:21:07;16.80;99.90
21238;DHT22;10777;50.828;3.264;2022-10-22T00:23:33;16.70;99.90
21238;DHT22;10777;50.828;3.264;2022-10-22T00:25:59;16.90;99.90
21238;DHT22;10777;50.828;3.264;2022-10-22T00:28:24;17.00;99.90
21238;DHT22;10777;50.828;3.264;2022-10-22T00:30:58;16.90;99.90
21238;DHT22;10777;50.828;3.264;2022-10-22T00:33:25;16.90;99.90
21238;DHT22;10777;50.828;3.264;2022-10-22T00:35:51;16.70;99.90
21238;DHT22;10777;50.828;3.264;2022-10-22T00:38:16;16.70;99.90
21238;DHT22;10777;50.828;3.264;2022-10-22T00:40:42;16.80;99.90
21238;DHT22;10777;50.828;3.264;2022-10-22T00:43:12;16.70;99.90
21238;DHT22;10777;50.828;3.264;2022-10-22T00:45:38;16.60;99.90
21238;DHT22;10777;50.828;3.264;2022-10-22T00:48:07;16.60;99.90
21238;DHT22;10777;50.828;3.264;2022-10-22T00:50:40;16.50;99.90
21238;DHT22;10777;50.828;3.264;2022-10-22T00:53:11;16.50;99.90
21238;DHT22;10777;50.828;3.264;2022-10-22T00:55:38;16.50;99.90
21238;DHT22;10777;50.828;3.264;2022-10-22T00:58:05;16.40;99.90
21238;DHT22;10777;50.828;3.264;2022-10-22T01:00:30;16.30;99.90
21238;DHT22;10777;50.828;3.264;2022-10-22T01:02:57;16.20;99.90
21238;DHT22;10777;50.828;3.264;2022-10-22T01:05:26;16.20;99.90
21238;DHT22;10777;50.828;3.264;2022-10-22T01:07:52;16.10;99.90
21238;DHT22;10777;50.828;3.264;2022-10-22T01:10:41;16.10;99.90
21238;DHT22;10777;50.828;3.264;2022-10-22T01:13:32;16.00;99.90
21238;DHT22;10777;50.828;3.264;2022-10-22T01:16:24;16.00;99.90
21238;DHT22;10777;50.828;3.264;2022-10-22T01:19:03;16.00;99.90
21238;DHT22;10777;50.828;3.264;2022-10-22T01:21:36;16.10;99.90
21238;DHT22;10777;50.828;3.264;2022-10-22T01:27:29;16.20;99.90
21238;DHT22;10777;50.828;3.264;2022-10-22T01:30:04;16.00;99.90
21238;DHT22;10777;50.828;3.264;2022-10-22T01:32:35;16.00;99.90
21238;DHT22;10777;50.828;3.264;2022-10-22T01:35:06;15.90;99.90
21238;DHT22;10777;50.828;3.264;2022-10-22T01:37:39;16.00;99.90
21238;DHT22;10777;50.828;3.264;2022-10-22T01:40:07;16.00;99.90
21238;DHT22;10777;50.828;3.264;2022-10-22T01:42:33;15.80;99.90
21238;DHT22;10777;50.828;3.264;2022-10-22T01:44:59;15.70;99.90
21238;DHT22;10777;50.828;3.264;2022-10-22T01:50:51;15.80;99.90
21238;DHT22;10777;50.828;3.264;2022-10-22T01:53:39;15.80;99.90
21238;DHT22;10777;50.828;3.264;2022-10-22T01:56:22;15.90;99.90
21238;DHT22;10777;50.828;3.264;2022-10-22T01:58:57;15.80;99.90
21238;DHT22;10777;50.828;3.264;2022-10-22T02:01:48;15.90;99.90
21238;DHT22;10777;50.828;3.264;2022-10-22T02:04:25;16.00;99.90
21238;DHT22;10777;50.828;3.264;2022-10-22T02:06:54;16.10;99.90
21238;DHT22;10777;50.828;3.264;2022-10-22T02:09:21;16.10;99.90
21238;DHT22;10777;50.828;3.264;2022-10-22T02:11:49;16.00;99.90
21238;DHT22;10777;50.828;3.264;2022-10-22T02:14:16;16.00;99.90
21238;DHT22;10777;50.828;3.264;2022-10-22T02:16:45;16.00;99.90
21238;DHT22;10777;50.828;3.264;2022-10-22T02:19:35;16.10;99.90
21238;DHT22;10777;50.828;3.264;2022-10-22T02:22:02;16.10;99.90
21238;DHT22;10777;50.828;3.264;2022-10-22T02:24:29;16.10;99.90
21238;DHT22;10777;50.828;3.264;2022-10-22T02:27:04;16.10;99.90
21238;DHT22;10777;50.828;3.264;2022-10-22T02:29:39;16.10;99.90
21238;DHT22;10777;50.828;3.264;2022-10-22T02:32:09;16.20;99.90
21238;DHT22;10777;50.828;3.264;2022-10-22T02:34:36;16.20;99.90
21238;DHT22;10777;50.828;3.264;2022-10-22T02:37:03;16.30;99.90
21238;DHT22;10777;50.828;3.264;2022-10-22T02:39:30;16.30;99.90
21238;DHT22;10777;50.828;3.264;2022-10-22T02:41:56;16.30;99.90
21238;DHT22;10777;50.828;3.264;2022-10-22T02:44:22;16.30;99.90
21238;DHT22;10777;50.828;3.264;2022-10-22T02:46:48;16.40;99.90
21238;DHT22;10777;50.828;3.264;2022-10-22T02:49:14;16.30;99.90
21238;DHT22;10777;50.828;3.264;2022-10-22T02:51:39;16.30;99.90
21238;DHT22;10777;50.828;3.264;2022-10-22T02:54:05;16.10;99.90
21238;DHT22;10777;50.828;3.264;2022-10-22T02:56:31;16.30;99.90
21238;DHT22;10777;50.828;3.264;2022-10-22T02:58:56;16.30;99.90
21238;DHT22;10777;50.828;3.264;2022-10-22T03:01:22;16.10;99.90
21238;DHT22;10777;50.828;3.264;2022-10-22T03:03:48;16.20;99.90
21238;DHT22;10777;50.828;3.264;2022-10-22T03:06:13;16.20;99.90
21238;DHT22;10777;50.828;3.264;2022-10-22T03:08:39;16.00;99.90
21238;DHT22;10777;50.828;3.264;2022-10-22T03:11:05;16.00;99.90
21238;DHT22;10777;50.828;3.264;2022-10-22T03:13:31;16.10;99.90
21238;DHT22;10777;50.828;3.264;2022-10-22T03:15:56;16.20;99.90
21238;DHT22;10777;50.828;3.264;2022-10-22T03:18:22;16.20;99.90
21238;DHT22;10777;50.828;3.264;2022-10-22T03:20:47;16.20;99.90
21238;DHT22;10777;50.828;3.264;2022-10-22T03:23:15;16.20;99.90
21238;DHT22;10777;50.828;3.264;2022-10-22T03:25:43;16.20;99.90
21238;DHT22;10777;50.828;3.264;2022-10-22T03:28:12;16.10;99.90
21238;DHT22;10777;50.828;3.264;2022-10-22T03:30:38;16.10;99.90
21238;DHT22;10777;50.828;3.264;2022-10-22T03:33:04;16.20;99.90
21238;DHT22;10777;50.828;3.264;2022-10-22T03:35:30;16.20;99.90
21238;DHT22;10777;50.828;3.264;2022-10-22T03:37:59;16.20;99.90
21238;DHT22;10777;50.828;3.264;2022-10-22T03:40:25;16.10;99.90
21238;DHT22;10777;50.828;3.264;2022-10-22T03:42:51;16.10;99.90
21238;DHT22;10777;50.828;3.264;2022-10-22T03:45:20;16.20;99.90
21238;DHT22;10777;50.828;3.264;2022-10-22T03:47:45;16.30;99.90
21238;DHT22;10777;50.828;3.264;2022-10-22T03:50:11;16.50;99.90
21238;DHT22;10777;50.828;3.264;2022-10-22T03:52:38;16.30;99.90
21238;DHT22;10777;50.828;3.264;2022-10-22T03:55:05;16.00;99.90
21238;DHT22;10777;50.828;3.264;2022-10-22T03:57:31;16.00;99.90
21238;DHT22;10777;50.828;3.264;2022-10-22T03:59:56;16.00;99.90
21238;DHT22;10777;50.828;3.264;2022-10-22T04:02:22;15.90;99.90
21238;DHT22;10777;50.828;3.264;2022-10-22T04:04:47;16.20;99.90
21238;DHT22;10777;50.828;3.264;2022-10-22T04:07:13;16.20;99.90
21238;DHT22;10777;50.828;3.264;2022-10-22T04:09:38;16.60;99.90
21238;DHT22;10777;50.828;3.264;2022-10-22T04:12:04;16.70;99.90
21238;DHT22;10777;50.828;3.264;2022-10-22T04:14:32;16.60;99.90
21238;DHT22;10777;50.828;3.264;2022-10-22T04:16:57;16.40;99.90
21238;DHT22;10777;50.828;3.264;2022-10-22T04:19:23;16.20;99.90
21238;DHT22;10777;50.828;3.264;2022-10-22T04:21:49;16.30;99.90
21238;DHT22;10777;50.828;3.264;2022-10-22T04:24:14;16.40;99.90
21238;DHT22;10777;50.828;3.264;2022-10-22T04:26:40;16.50;99.90
21238;DHT22;10777;50.828;3.264;2022-10-22T04:29:06;16.50;99.90
21238;DHT22;10777;50.828;3.264;2022-10-22T04:31:32;16.40;99.90
21238;DHT22;10777;50.828;3.264;2022-10-22T04:34:00;16.30;99.90
21238;DHT22;10777;50.828;3.264;2022-10-22T04:36:26;16.60;99.90
21238;DHT22;10777;50.828;3.264;2022-10-22T04:38:55;16.60;99.90
21238;DHT22;10777;50.828;3.264;2022-10-22T04:41:23;16.60;99.90
21238;DHT22;10777;50.828;3.264;2022-10-22T04:43:50;16.80;99.90
21238;DHT22;10777;50.828;3.264;2022-10-22T04:46:17;16.70;99.90
21238;DHT22;10777;50.828;3.264;2022-10-22T04:48:44;16.70;99.90
21238;DHT22;10777;50.828;3.264;2022-10-22T04:51:13;16.70;99.90
21238;DHT22;10777;50.828;3.264;2022-10-22T04:53:39;16.90;99.90
21238;DHT22;10777;50.828;3.264;2022-10-22T04:56:09;17.10;99.90
21238;DHT22;10777;50.828;3.264;2022-10-22T04:58:36;17.10;99.90
21238;DHT22;10777;50.828;3.264;2022-10-22T05:01:20;17.20;99.90
21238;DHT22;10777;50.828;3.264;2022-10-22T05:03:48;17.00;99.90
21238;DHT22;10777;50.828;3.264;2022-10-22T05:06:14;17.00;99.90
21238;DHT22;10777;50.828;3.264;2022-10-22T05:08:39;17.10;99.90
21238;DHT22;10777;50.828;3.264;2022-10-22T05:11:15;16.90;99.90
21238;DHT22;10777;50.828;3.264;2022-10-22T05:13:40;17.10;99.90
21238;DHT22;10777;50.828;3.264;2022-10-22T05:16:07;17.10;99.90
21238;DHT22;10777;50.828;3.264;2022-10-22T05:18:34;17.20;99.90
21238;DHT22;10777;50.828;3.264;2022-10-22T05:21:00;17.10;99.90
21238;DHT22;10777;50.828;3.264;2022-10-22T05:23:27;17.10;99.90
21238;DHT22;10777;50.828;3.264;2022-10-22T05:25:52;17.20;99.90
21238;DHT22;10777;50.828;3.264;2022-10-22T05:28:18;17.20;99.90
21238;DHT22;10777;50.828;3.264;2022-10-22T05:30:53;17.20;99.90
21238;DHT22;10777;50.828;3.264;2022-10-22T05:33:19;17.20;99.90
21238;DHT22;10777;50.828;3.264;2022-10-22T05:35:48;17.00;99.90
21238;DHT22;10777;50.828;3.264;2022-10-22T05:38:14;16.80;99.90
21238;DHT22;10777;50.828;3.264;2022-10-22T05:40:40;16.90;99.90
21238;DHT22;10777;50.828;3.264;2022-10-22T05:43:05;17.00;99.90
21238;DHT22;10777;50.828;3.264;2022-10-22T05:45:36;17.00;99.90
21238;DHT22;10777;50.828;3.264;2022-10-22T05:48:03;17.00;99.90
21238;DHT22;10777;50.828;3.264;2022-10-22T05:50:28;17.00;99.90
21238;DHT22;10777;50.828;3.264;2022-10-22T05:52:54;17.00;99.90
21238;DHT22;10777;50.828;3.264;2022-10-22T05:55:19;17.00;99.90
21238;DHT22;10777;50.828;3.264;2022-10-22T05:57:45;17.10;99.90
21238;DHT22;10777;50.828;3.264;2022-10-22T06:00:11;17.10;99.90
21238;DHT22;10777;50.828;3.264;2022-10-22T06:02:37;16.90;99.90
21238;DHT22;10777;50.828;3.264;2022-10-22T06:05:03;17.00;99.90
21238;DHT22;10777;50.828;3.264;2022-10-22T06:07:29;17.00;99.90
21238;DHT22;10777;50.828;3.264;2022-10-22T06:09:54;17.10;99.90
21238;DHT22;10777;50.828;3.264;2022-10-22T06:12:20;17.20;99.90
21238;DHT22;10777;50.828;3.264;2022-10-22T06:14:46;17.10;99.90
21238;DHT22;10777;50.828;3.264;2022-10-22T06:17:12;17.00;99.90
21238;DHT22;10777;50.828;3.264;2022-10-22T06:19:37;17.10;99.90
21238;DHT22;10777;50.828;3.264;2022-10-22T06:22:03;17.10;99.90
21238;DHT22;10777;50.828;3.264;2022-10-22T06:24:29;17.10;99.90
21238;DHT22;10777;50.828;3.264;2022-10-22T06:26:55;17.10;99.90
21238;DHT22;10777;50.828;3.264;2022-10-22T06:29:21;17.10;99.90
21238;DHT22;10777;50.828;3.264;2022-10-22T06:31:47;17.20;99.90
21238;DHT22;10777;50.828;3.264;2022-10-22T06:34:13;17.30;99.90
21238;DHT22;10777;50.828;3.264;2022-10-22T06:36:39;17.30;99.90
21238;DHT22;10777;50.828;3.264;2022-10-22T06:39:11;17.40;99.90
21238;DHT22;10777;50.828;3.264;2022-10-22T06:41:37;17.40;99.90
21238;DHT22;10777;50.828;3.264;2022-10-22T06:44:02;17.30;99.90
21238;DHT22;10777;50.828;3.264;2022-10-22T06:46:28;17.30;99.90
21238;DHT22;10777;50.828;3.264;2022-10-22T06:48:58;17.30;99.90
21238;DHT22;10777;50.828;3.264;2022-10-22T06:51:24;17.10;99.90
21238;DHT22;10777;50.828;3.264;2022-10-22T06:53:50;17.20;99.90
21238;DHT22;10777;50.828;3.264;2022-10-22T06:56:19;17.10;99.90
21238;DHT22;10777;50.828;3.264;2022-10-22T06:58:54;17.10;99.90
21238;DHT22;10777;50.828;3.264;2022-10-22T07:01:23;17.20;99.90
21238;DHT22;10777;50.828;3.264;2022-10-22T07:03:49;17.30;99.90
21238;DHT22;10777;50.828;3.264;2022-10-22T07:06:16;17.40;99.90
21238;DHT22;10777;50.828;3.264;2022-10-22T07:08:42;17.50;99.90
21238;DHT22;10777;50.828;3.264;2022-10-22T07:11:12;17.30;99.90
21238;DHT22;10777;50.828;3.264;2022-10-22T07:13:38;17.20;99.90
21238;DHT22;10777;50.828;3.264;2022-10-22T07:16:04;17.20;99.90
21238;DHT22;10777;50.828;3.264;2022-10-22T07:18:31;17.50;99.90
21238;DHT22;10777;50.828;3.264;2022-10-22T07:20:58;17.60;99.90
21238;DHT22;10777;50.828;3.264;2022-10-22T07:23:24;17.50;99.90
21238;DHT22;10777;50.828;3.264;2022-10-22T07:25:50;17.50;99.90
21238;DHT22;10777;50.828;3.264;2022-10-22T07:28:15;17.50;99.90
21238;DHT22;10777;50.828;3.264;2022-10-22T07:30:41;17.70;99.90
21238;DHT22;10777;50.828;3.264;2022-10-22T07:33:07;17.90;99.90
21238;DHT22;10777;50.828;3.264;2022-10-22T07:35:33;18.00;99.90
21238;DHT22;10777;50.828;3.264;2022-10-22T07:37:59;18.10;99.90
21238;DHT22;10777;50.828;3.264;2022-10-22T07:40:25;17.80;99.90
21238;DHT22;10777;50.828;3.264;2022-10-22T07:42:50;17.60;99.90
21238;DHT22;10777;50.828;3.264;2022-10-22T07:45:17;17.70;99.90
21238;DHT22;10777;50.828;3.264;2022-10-22T07:47:43;17.80;99.90
21238;DHT22;10777;50.828;3.264;2022-10-22T07:50:09;17.70;99.90
21238;DHT22;10777;50.828;3.264;2022-10-22T07:52:34;17.90;99.90
21238;DHT22;10777;50.828;3.264;2022-10-22T07:55:00;17.90;99.90
21238;DHT22;10777;50.828;3.264;2022-10-22T07:57:25;18.00;99.90
21238;DHT22;10777;50.828;3.264;2022-10-22T07:59:51;18.00;99.90
21238;DHT22;10777;50.828;3.264;2022-10-22T08:02:17;18.10;99.90
21238;DHT22;10777;50.828;3.264;2022-10-22T08:04:42;17.90;99.90
21238;DHT22;10777;50.828;3.264;2022-10-22T08:07:08;17.90;99.90
21238;DHT22;10777;50.828;3.264;2022-10-22T08:09:34;17.90;99.90
21238;DHT22;10777;50.828;3.264;2022-10-22T08:11:59;17.80;99.90
21238;DHT22;10777;50.828;3.264;2022-10-22T08:14:25;17.90;99.90
21238;DHT22;10777;50.828;3.264;2022-10-22T08:16:51;18.10;99.90
21238;DHT22;10777;50.828;3.264;2022-10-22T08:19:16;18.20;99.90
21238;DHT22;10777;50.828;3.264;2022-10-22T08:21:45;18.30;99.90
21238;DHT22;10777;50.828;3.264;2022-10-22T08:24:11;18.50;99.90
21238;DHT22;10777;50.828;3.264;2022-10-22T08:26:36;18.50;99.90
21238;DHT22;10777;50.828;3.264;2022-10-22T08:29:02;18.20;99.90
21238;DHT22;10777;50.828;3.264;2022-10-22T08:31:28;18.20;99.90
21238;DHT22;10777;50.828;3.264;2022-10-22T08:33:54;18.20;99.90
21238;DHT22;10777;50.828;3.264;2022-10-22T08:36:20;18.10;99.90
21238;DHT22;10777;50.828;3.264;2022-10-22T08:38:46;18.20;99.90
21238;DHT22;10777;50.828;3.264;2022-10-22T08:41:15;18.10;99.90
21238;DHT22;10777;50.828;3.264;2022-10-22T08:44:08;18.00;99.90
21238;DHT22;10777;50.828;3.264;2022-10-22T08:46:59;18.10;99.90
21238;DHT22;10777;50.828;3.264;2022-10-22T08:49:29;18.10;99.90
21238;DHT22;10777;50.828;3.264;2022-10-22T08:51:57;18.40;99.90
21238;DHT22;10777;50.828;3.264;2022-10-22T08:54:48;18.50;99.90
21238;DHT22;10777;50.828;3.264;2022-10-22T09:00:16;18.20;99.90
21238;DHT22;10777;50.828;3.264;2022-10-22T09:03:06;18.50;99.90
21238;DHT22;10777;50.828;3.264;2022-10-22T09:06:17;18.70;99.90
21238;DHT22;10777;50.828;3.264;2022-10-22T09:08:45;18.90;99.90
21238;DHT22;10777;50.828;3.264;2022-10-22T09:11:27;18.90;99.90
21238;DHT22;10777;50.828;3.264;2022-10-22T09:13:55;18.90;99.90
21238;DHT22;10777;50.828;3.264;2022-10-22T09:16:38;18.90;99.90
21238;DHT22;10777;50.828;3.264;2022-10-22T09:19:14;18.90;99.90
21238;DHT22;10777;50.828;3.264;2022-10-22T09:21:53;18.80;99.90
21238;DHT22;10777;50.828;3.264;2022-10-22T09:27:26;18.70;99.90
21238;DHT22;10777;50.828;3.264;2022-10-22T09:29:51;18.70;99.90
21238;DHT22;10777;50.828;3.264;2022-10-22T09:32:17;19.00;99.90
21238;DHT22;10777;50.828;3.264;2022-10-22T09:34:45;19.00;99.90
21238;DHT22;10777;50.828;3.264;2022-10-22T09:37:11;19.00;99.90
21238;DHT22;10777;50.828;3.264;2022-10-22T09:39:40;19.40;99.90
21238;DHT22;10777;50.828;3.264;2022-10-22T09:42:06;19.50;99.90
21238;DHT22;10777;50.828;3.264;2022-10-22T09:44:34;19.40;99.90
21238;DHT22;10777;50.828;3.264;2022-10-22T09:47:04;19.40;99.90
21238;DHT22;10777;50.828;3.264;2022-10-22T09:49:33;19.60;99.90
21238;DHT22;10777;50.828;3.264;2022-10-22T09:52:00;19.70;99.90
21238;DHT22;10777;50.828;3.264;2022-10-22T09:54:40;19.70;99.90
21238;DHT22;10777;50.828;3.264;2022-10-22T09:57:15;19.80;99.90
21238;DHT22;10777;50.828;3.264;2022-10-22T09:59:43;19.90;99.90
21238;DHT22;10777;50.828;3.264;2022-10-22T10:02:14;20.00;99.90
21238;DHT22;10777;50.828;3.264;2022-10-22T10:04:45;19.90;99.90
21238;DHT22;10777;50.828;3.264;2022-10-22T10:07:19;19.70;99.90
21238;DHT22;10777;50.828;3.264;2022-10-22T10:09:46;19.70;99.90
21238;DHT22;10777;50.828;3.264;2022-10-22T10:12:35;19.70;99.90
21238;DHT22;10777;50.828;3.264;2022-10-22T10:18:13;19.70;99.90
21238;DHT22;10777;50.828;3.264;2022-10-22T10:23:45;19.70;99.90
21238;DHT22;10777;50.828;3.264;2022-10-22T10:26:22;19.70;99.90
21238;DHT22;10777;50.828;3.264;2022-10-22T10:34:54;19.90;99.90
21238;DHT22;10777;50.828;3.264;2022-10-22T10:37:27;19.80;99.90
21238;DHT22;10777;50.828;3.264;2022-10-22T10:40:18;19.90;99.90
21238;DHT22;10777;50.828;3.264;2022-10-22T10:43:01;20.30;99.90
21238;DHT22;10777;50.828;3.264;2022-10-22T10:45:41;20.50;99.90
21238;DHT22;10777;50.828;3.264;2022-10-22T10:48:23;20.30;99.90
21238;DHT22;10777;50.828;3.264;2022-10-22T11:00:07;20.40;99.90
21238;DHT22;10777;50.828;3.264;2022-10-22T11:03:03;20.30;99.90
21238;DHT22;10777;50.828;3.264;2022-10-22T11:08:29;19.80;99.90
21238;DHT22;10777;50.828;3.264;2022-10-22T11:11:05;19.90;99.90
21238;DHT22;10777;50.828;3.264;2022-10-22T11:14:09;20.00;99.90
21238;DHT22;10777;50.828;3.264;2022-10-22T11:16:43;20.00;99.90
21238;DHT22;10777;50.828;3.264;2022-10-22T11:19:19;20.10;99.90
21238;DHT22;10777;50.828;3.264;2022-10-22T11:21:57;20.10;99.90
21238;DHT22;10777;50.828;3.264;2022-10-22T11:27:33;20.60;99.90
21238;DHT22;10777;50.828;3.264;2022-10-22T11:30:05;20.30;99.90
21238;DHT22;10777;50.828;3.264;2022-10-22T11:32:35;20.50;99.90
21238;DHT22;10777;50.828;3.264;2022-10-22T11:35:04;20.50;99.90
21238;DHT22;10777;50.828;3.264;2022-10-22T11:37:34;20.60;99.90
21238;DHT22;10777;50.828;3.264;2022-10-22T11:40:42;20.60;99.90
21238;DHT22;10777;50.828;3.264;2022-10-22T11:43:10;20.60;99.90
21238;DHT22;10777;50.828;3.264;2022-10-22T11:45:40;20.90;99.90
21238;DHT22;10777;50.828;3.264;2022-10-22T11:48:22;21.70;99.90
21238;DHT22;10777;50.828;3.264;2022-10-22T11:50:56;22.20;99.90
21238;DHT22;10777;50.828;3.264;2022-10-22T11:53:34;23.10;99.90
21238;DHT22;10777;50.828;3.264;2022-10-22T11:56:21;23.90;99.90
21238;DHT22;10777;50.828;3.264;2022-10-22T11:58:48;25.10;99.90
21238;DHT22;10777;50.828;3.264;2022-10-22T12:01:21;25.40;99.90
21238;DHT22;10777;50.828;3.264;2022-10-22T12:03:49;25.70;99.90
21238;DHT22;10777;50.828;3.264;2022-10-22T12:06:20;26.00;99.90
21238;DHT22;10777;50.828;3.264;2022-10-22T12:08:59;26.30;99.90
21238;DHT22;10777;50.828;3.264;2022-10-22T12:11:45;26.70;99.90
21238;DHT22;10777;50.828;3.264;2022-10-22T12:14:33;27.10;99.90
21238;DHT22;10777;50.828;3.264;2022-10-22T12:17:19;27.40;99.90
21238;DHT22;10777;50.828;3.264;2022-10-22T12:19:50;27.90;99.90
21238;DHT22;10777;50.828;3.264;2022-10-22T12:22:22;28.80;99.90
21238;DHT22;10777;50.828;3.264;2022-10-22T12:24:52;28.40;99.90
21238;DHT22;10777;50.828;3.264;2022-10-22T12:27:24;28.00;99.90
21238;DHT22;10777;50.828;3.264;2022-10-22T12:29:54;27.60;99.90
21238;DHT22;10777;50.828;3.264;2022-10-22T12:32:20;27.80;99.90
21238;DHT22;10777;50.828;3.264;2022-10-22T12:34:48;27.50;99.90
21238;DHT22;10777;50.828;3.264;2022-10-22T12:37:15;26.70;99.90
21238;DHT22;10777;50.828;3.264;2022-10-22T12:39:41;26.20;99.90
21238;DHT22;10777;50.828;3.264;2022-10-22T12:42:12;26.00;99.90
21238;DHT22;10777;50.828;3.264;2022-10-22T12:44:38;25.60;99.90
21238;DHT22;10777;50.828;3.264;2022-10-22T12:47:06;24.70;99.90
21238;DHT22;10777;50.828;3.264;2022-10-22T12:49:42;24.20;99.90
21238;DHT22;10777;50.828;3.264;2022-10-22T12:52:16;23.80;99.90
21238;DHT22;10777;50.828;3.264;2022-10-22T12:54:45;23.70;99.90
21238;DHT22;10777;50.828;3.264;2022-10-22T12:57:14;23.50;99.90
21238;DHT22;10777;50.828;3.264;2022-10-22T12:59:43;22.90;99.90
21238;DHT22;10777;50.828;3.264;2022-10-22T13:02:27;22.60;99.90
21238;DHT22;10777;50.828;3.264;2022-10-22T13:08:16;22.20;99.90
21238;DHT22;10777;50.828;3.264;2022-10-22T13:10:50;21.90;99.90
21238;DHT22;10777;50.828;3.264;2022-10-22T13:13:40;22.00;99.90
21238;DHT22;10777;50.828;3.264;2022-10-22T13:16:24;21.90;99.90
21238;DHT22;10777;50.828;3.264;2022-10-22T13:18:51;21.70;99.90
21238;DHT22;10777;50.828;3.264;2022-10-22T13:21:25;21.80;99.90
21238;DHT22;10777;50.828;3.264;2022-10-22T13:24:00;21.70;99.90
21238;DHT22;10777;50.828;3.264;2022-10-22T13:26:33;21.70;99.90
21238;DHT22;10777;50.828;3.264;2022-10-22T13:28:59;21.60;99.90
21238;DHT22;10777;50.828;3.264;2022-10-22T13:31:29;21.50;99.90
21238;DHT22;10777;50.828;3.264;2022-10-22T13:34:00;21.50;99.90
21238;DHT22;10777;50.828;3.264;2022-10-22T13:36:27;21.40;99.90
21238;DHT22;10777;50.828;3.264;2022-10-22T13:38:53;21.20;99.90
21238;DHT22;10777;50.828;3.264;2022-10-22T13:41:25;21.30;99.90
21238;DHT22;10777;50.828;3.264;2022-10-22T13:43:52;21.40;99.90
21238;DHT22;10777;50.828;3.264;2022-10-22T13:46:18;21.50;99.90
21238;DHT22;10777;50.828;3.264;2022-10-22T13:48:45;21.20;99.90
21238;DHT22;10777;50.828;3.264;2022-10-22T13:51:14;21.20;99.90
21238;DHT22;10777;50.828;3.264;2022-10-22T13:53:41;21.40;99.90
21238;DHT22;10777;50.828;3.264;2022-10-22T13:56:11;21.50;99.90
21238;DHT22;10777;50.828;3.264;2022-10-22T13:58:37;21.60;99.90
21238;DHT22;10777;50.828;3.264;2022-10-22T14:01:03;21.50;99.90
21238;DHT22;10777;50.828;3.264;2022-10-22T14:03:33;21.50;99.90
21238;DHT22;10777;50.828;3.264;2022-10-22T14:06:00;21.60;99.90
21238;DHT22;10777;50.828;3.264;2022-10-22T14:08:27;21.30;99.90
21238;DHT22;10777;50.828;3.264;2022-10-22T14:10:53;21.30;99.90
21238;DHT22;10777;50.828;3.264;2022-10-22T14:13:19;21.30;99.90
21238;DHT22;10777;50.828;3.264;2022-10-22T14:15:47;21.50;99.90
21238;DHT22;10777;50.828;3.264;2022-10-22T14:18:19;21.20;99.90
21238;DHT22;10777;50.828;3.264;2022-10-22T14:20:51;21.30;99.90
21238;DHT22;10777;50.828;3.264;2022-10-22T14:23:19;21.30;99.90
21238;DHT22;10777;50.828;3.264;2022-10-22T14:25:46;21.30;99.90
21238;DHT22;10777;50.828;3.264;2022-10-22T14:28:12;21.20;99.90
21238;DHT22;10777;50.828;3.264;2022-10-22T14:30:39;21.30;99.90
21238;DHT22;10777;50.828;3.264;2022-10-22T14:33:28;21.10;99.90
21238;DHT22;10777;50.828;3.264;2022-10-22T14:35:55;21.30;99.90
21238;DHT22;10777;50.828;3.264;2022-10-22T14:38:21;21.20;99.90
21238;DHT22;10777;50.828;3.264;2022-10-22T14:40:47;21.30;99.90
21238;DHT22;10777;50.828;3.264;2022-10-22T14:43:19;21.30;99.90
21238;DHT22;10777;50.828;3.264;2022-10-22T14:45:45;21.40;99.90
21238;DHT22;10777;50.828;3.264;2022-10-22T14:48:11;21.30;99.90
21238;DHT22;10777;50.828;3.264;2022-10-22T14:50:37;21.30;99.90
21238;DHT22;10777;50.828;3.264;2022-10-22T14:53:02;21.40;99.90
21238;DHT22;10777;50.828;3.264;2022-10-22T14:55:28;21.40;99.90
21238;DHT22;10777;50.828;3.264;2022-10-22T14:57:53;21.40;99.90
21238;DHT22;10777;50.828;3.264;2022-10-22T15:00:20;21.30;99.90
21238;DHT22;10777;50.828;3.264;2022-10-22T15:02:46;21.00;99.90
21238;DHT22;10777;50.828;3.264;2022-10-22T15:05:13;20.90;99.90
21238;DHT22;10777;50.828;3.264;2022-10-22T15:07:40;21.00;99.90
21238;DHT22;10777;50.828;3.264;2022-10-22T15:10:06;20.90;99.90
21238;DHT22;10777;50.828;3.264;2022-10-22T15:12:33;20.90;99.90
21238;DHT22;10777;50.828;3.264;2022-10-22T15:14:58;20.90;99.90
21238;DHT22;10777;50.828;3.264;2022-10-22T15:17:24;21.10;99.90
21238;DHT22;10777;50.828;3.264;2022-10-22T15:19:50;21.00;99.90
21238;DHT22;10777;50.828;3.264;2022-10-22T15:22:17;20.90;99.90
21238;DHT22;10777;50.828;3.264;2022-10-22T15:24:43;20.90;99.90
21238;DHT22;10777;50.828;3.264;2022-10-22T15:27:10;21.00;99.90
21238;DHT22;10777;50.828;3.264;2022-10-22T15:29:38;20.80;99.90
21238;DHT22;10777;50.828;3.264;2022-10-22T15:32:04;20.90;99.90
21238;DHT22;10777;50.828;3.264;2022-10-22T15:34:34;20.80;99.90
21238;DHT22;10777;50.828;3.264;2022-10-22T15:37:02;20.70;99.90
21238;DHT22;10777;50.828;3.264;2022-10-22T15:39:28;20.50;99.90
21238;DHT22;10777;50.828;3.264;2022-10-22T15:41:54;20.50;99.90
21238;DHT22;10777;50.828;3.264;2022-10-22T15:44:24;20.40;99.90
21238;DHT22;10777;50.828;3.264;2022-10-22T15:46:50;20.50;99.90
21238;DHT22;10777;50.828;3.264;2022-10-22T15:49:17;20.40;99.90
21238;DHT22;10777;50.828;3.264;2022-10-22T15:51:43;20.40;99.90
21238;DHT22;10777;50.828;3.264;2022-10-22T15:54:13;20.50;99.90
21238;DHT22;10777;50.828;3.264;2022-10-22T15:56:40;20.50;99.90
21238;DHT22;10777;50.828;3.264;2022-10-22T15:59:05;20.50;99.90
21238;DHT22;10777;50.828;3.264;2022-10-22T16:01:32;20.50;99.90
21238;DHT22;10777;50.828;3.264;2022-10-22T16:03:59;20.50;99.90
21238;DHT22;10777;50.828;3.264;2022-10-22T16:06:28;20.50;99.90
21238;DHT22;10777;50.828;3.264;2022-10-22T16:08:55;20.50;99.90
21238;DHT22;10777;50.828;3.264;2022-10-22T16:11:20;20.50;99.90
21238;DHT22;10777;50.828;3.264;2022-10-22T16:13:46;20.60;99.90
21238;DHT22;10777;50.828;3.264;2022-10-22T16:16:12;20.60;99.90
21238;DHT22;10777;50.828;3.264;2022-10-22T16:18:37;20.60;99.90
21238;DHT22;10777;50.828;3.264;2022-10-22T16:21:03;20.40;99.90
21238;DHT22;10777;50.828;3.264;2022-10-22T16:23:28;20.70;99.90
21238;DHT22;10777;50.828;3.264;2022-10-22T16:25:54;20.50;99.90
21238;DHT22;10777;50.828;3.264;2022-10-22T16:28:20;20.50;99.90